Hovedside
METAR-TAF:

METAR-TAF

Lufthavner :

Florø, Norge

Florø lufthavn

breddegrad: 61-35N, lengdegrad: 005-02E, høyde over havet: 0 m

Gjeldene værobservasjon

Denne rapporten ble laget for 26 minutter siden, klokken 18:20 UTC
Vind 12 kt fra Øst-sørøst
Temperatur 13°C
Luftfuktighet 82%
Trykk 1021 hPa
Sikt 10 km eller mer
Få skyer i en høyde av 2200 ft
Spredte skyer i en høyde av 2700 ft
Brutte skyer i en høyde av 3700 ft
lett regn

METAR: ENFL 221820Z 11012KT 9999 -RA FEW022 SCT027 BKN037 13/10 Q1021

Tid: 20:46 (18:46 UTC)

Varsel

Denne rapporten ble laget for 4 timer og 46 minutter siden, klokken 14:00 UTC
Varsel gyldig fra 22. klokken 15 UTC til 22. klokken 20 UTC
Vind 15 kt fra Sørøst
Sikt 10 km eller mer
Få skyer i en høyde av 2000 ft
Brutte skyer i en høyde av 3500 ft
lett regn

TAF: ENFL 221400Z 2215/2220 14015KT 9999 -RA FEW020 BKN035

Værobservasjoner og værvarsel for over 4000 flyplasser (METAR- og TAF-rapporter).

Tilgjengelige stasjoner er representert av de røde og gule prikkene på kartet.

Hold musepekeren over prikken for å se navnet på stasjonen.

Klikk så for å se værobservasjoner og -varsler.

For å forandre kartet kan du klikke på den grønne knappen med svart kryss for å zoome inn, på den grønne knappen med strek for å zoome ut, eller på de grønne pilene for å se tilstøtende kart.


METAR-TAF: